KHMZ

Bedford County Airport

Bedford, Pennsylvania, USA
METAR KHMZ 210415Z AUTO 20003KT 10SM SCT040 01/M02 A3008 RMK AO2 T00111022
Observed Flight Rules
Jan-21 @ 04:15 UTC (35 minutes ago) Visual Flight Rules
Wind Visibility Clouds
200° at 3 knots 10 miles
  • Scattered at 4,000' AGL
Temperatures Readings
Current 1°C / 34°F
Dewpoint -2°C / 28°F
Humidity 81%
Altimeter 30.08" Hg
Pressure 1019 hPa
Elevation 354
METAR KHMZ 210415Z AUTO 20003KT 10SM SCT040 01/M02 A3008 RMK AO2 T00111022
Observed Flight Rules
Jan-21 @ 04:15 UTC
(35 minutes ago)
VFR
Wind Visibility
200° at 3 knots 10 miles
Clouds
  • Scattered at 4,000' AGL
Temperature Dewpoint
1°C / 34°F -2°C / 28°F
Humidity Altimeter Pressure
81% 30.08" Hg 1019 hPa